Airways and Terminal Forecast

Significant Meteorological Information
Terminal Aerodrome Forecast
TAF RPLL

182300Z 1900/2006 10008KT 9999 FEW025 TX32/1906Z TN23/1921Z TEMPO 1903/1909 11018KT SCT025 SCT300 TEMPO 1909/1915 10015KT=

TAF RPVM

182300Z 1900/2006 05008KT 9999 FEW020 SCT100 TEMPO 1900/1906 09010KT -RA FEW020 BKN090 TEMPO 1906/1912 06012KT FEW020 BKN100=

TAF RPLC

182300Z 1900/2006 07008KT 9999 FEW020 BKN300 TX32/1906Z TN21/1922Z TEMPO 1900/1906 FEW020 BKN100=

TAF RPLB

182300Z 1900/1924 06008KT 9999 FEW020 TX32/1906Z TN22/1922Z TEMPO 1900/1906 10010G20KT SCT020=

TAF RPLI

182300Z 1900/1924 32006KT 9999 FEW018 TEMPO 1903/1909 35012KT TEMPO 1916/1922 14005KT=

TAF RPVP

182300Z 1900/1924 09008KT 9999 FEW019 TEMPO 1900/1906 09016KT FEW017TCU FEW019=

TAF RPVD

182300Z 1900/1924 04008KT 9999 FEW015 SCT080 TEMPO 1900/1906 04015KT -SHRA SCT015 BKN080=

TAF RPMR

182300Z 1900/1924 02008KT 9999 FEW015 SCT250 TEMPO 1901/1907 04016KT VCSH FEW018 BKN080=

TAF RPMD

182300Z 1900/1924 36008KT 9999 FEW016 SCT290 TEMPO 1900/1906 02015KT -SHRA SCT016 BKN090=

TAF RPMZ

182300Z 1900/1924 10006KT 9999 FEW017 TEMPO 1902/1908 10012KT FEW016CB FEW017 TEMPO 1909/1913 27008KT=


   

RPLL FORECAST TAKE-OFF CONDITION

TIME

(UTC)

WIND

(dddffKT)

TEMP

(°C)

QNH

(hPa)

TIME

(UTC)

WIND

(dddffKT)

TEMP

(°C)

QNH

(hPa)

0000

08008KT

26.0

1018.5

0400

10012KT

30.5

1017.5

0100

09009KT

27.5

1018.5

0500

11012KT

31.0

1016.5

0200

09009KT

28.5

1018.5

0600

11013KT

31.5

1015.5

0300

10010KT

29.5

1018.0

0700

11013KT

31.0

1015.0

ISSUED AT NAIA AMSS-WD/PAGASA-DOST FOR 2300UTC 18 FEBRUARY 2019

 PREPARED BY:  MPT                                          CHECKED BY:  AYN